Time;durP1;ratioP1;P1;durP2;ratioP2;P2;SDS_P1;SDS_P2;PMS_P1;PMS_P2;Temp;Humidity;BMP_temperature;BMP_pressure;BME280_temperature;BME280_humidity;BME280_pressure;Samples;Min_cycle;Max_cycle;Signal;HPM_P1;HPM_P2
2021/04/28 00:00:31;;;;;;;5.03;2.60;;;;;;;4.95;74.05;99300.78;5044701;28;20211;-67
2021/04/28 00:02:57;;;;;;;6.13;2.55;;;;;;;4.65;73.76;99262.41;5041387;28;20044;-70
2021/04/28 00:05:24;;;;;;;6.57;2.50;;;;;;;4.94;74.02;99312.13;5044593;28;20032;-68
2021/04/28 00:07:50;;;;;;;3.38;2.45;;;;;;;4.92;73.64;99308.66;5044969;28;20614;-72
2021/04/28 00:10:19;;;;;;;4.10;2.20;;;;;;;4.98;73.66;99311.25;5059959;28;20076;-73
2021/04/28 00:12:48;;;;;;;5.13;2.30;;;;;;;4.91;73.68;99320.91;5044105;28;20049;-70
2021/04/28 00:15:20;;;;;;;5.88;2.50;;;;;;;4.78;73.26;99292.97;5044548;28;20554;-70
2021/04/28 00:17:47;;;;;;;3.90;2.10;;;;;;;4.90;73.13;99318.28;5026753;28;20040;-70
2021/04/28 00:20:14;;;;;;;2.95;2.17;;;;;;;4.78;73.37;99307.84;5044975;28;21072;-72
2021/04/28 00:22:40;;;;;;;4.70;2.22;;;;;;;5.04;73.54;99325.22;5011544;28;20051;-68
2021/04/28 00:25:19;;;;;;;4.50;2.20;;;;;;;5.08;73.21;99319.06;5043531;28;20069;-71
2021/04/28 00:27:46;;;;;;;4.18;2.22;;;;;;;5.12;73.37;99329.56;5044402;28;20045;-70
2021/04/28 00:30:13;;;;;;;9.93;2.47;;;;;;;5.07;73.50;99312.06;5046161;28;20036;-71
2021/04/28 00:32:41;;;;;;;3.70;2.15;;;;;;;5.07;72.72;99330.47;5025132;28;20065;-68
2021/04/28 00:35:10;;;;;;;6.07;2.40;;;;;;;5.12;72.94;99330.44;5041259;28;20047;-72
2021/04/28 00:37:38;;;;;;;4.80;2.30;;;;;;;5.03;72.47;99325.25;5042297;28;20068;-72
2021/04/28 00:40:10;;;;;;;3.17;2.42;;;;;;;4.97;73.30;99334.03;5041952;28;20048;-72
2021/04/28 00:42:40;;;;;;;3.38;2.00;;;;;;;5.03;72.48;99340.13;5045017;28;20044;-72
2021/04/28 00:45:06;;;;;;;4.43;2.25;;;;;;;4.87;72.99;99331.47;5061001;28;20087;-73
2021/04/28 00:47:32;;;;;;;4.57;2.50;;;;;;;5.02;72.88;99338.38;5043993;28;20048;-73
2021/04/28 00:49:58;;;;;;;3.45;2.22;;;;;;;5.13;71.60;99349.72;5025574;28;20052;-72
2021/04/28 00:52:25;;;;;;;5.10;2.33;;;;;;;5.08;71.45;99345.34;5027674;28;20079;-72
2021/04/28 00:54:53;;;;;;;4.07;2.20;;;;;;;5.04;71.72;99353.25;5061294;28;20469;-73
2021/04/28 00:57:19;;;;;;;5.60;2.25;;;;;;;5.11;71.70;99349.72;5042393;28;20362;-73
2021/04/28 00:59:46;;;;;;;5.65;2.60;;;;;;;5.05;71.63;99360.25;5044804;28;20077;-73
2021/04/28 01:02:12;;;;;;;5.53;2.42;;;;;;;4.99;71.74;99360.28;5042487;28;20144;-73
2021/04/28 01:04:38;;;;;;;4.78;2.30;;;;;;;4.91;71.92;99336.66;5011172;28;20053;-73
2021/04/28 01:07:07;;;;;;;3.47;2.03;;;;;;;5.03;71.84;99356.78;5043170;28;20055;-74
2021/04/28 01:09:39;;;;;;;2.65;2.00;;;;;;;5.06;71.65;99363.78;5044256;28;20128;-72
2021/04/28 01:12:07;;;;;;;4.13;2.00;;;;;;;5.07;71.42;99371.66;5010783;28;20400;-72
2021/04/28 01:14:34;;;;;;;4.47;2.13;;;;;;;5.06;71.14;99366.41;5025115;28;20069;-74
2021/04/28 01:17:04;;;;;;;4.40;2.20;;;;;;;5.03;71.82;99363.78;5042226;28;20041;-72
2021/04/28 01:19:36;;;;;;;4.75;2.28;;;;;;;5.03;71.55;99347.13;5026472;28;20509;-71
2021/04/28 01:22:03;;;;;;;7.65;2.30;;;;;;;5.17;70.96;99368.06;5024753;28;20052;-72
2021/04/28 01:24:29;;;;;;;3.03;2.05;;;;;;;4.99;71.08;99374.28;5040877;28;20038;-71
2021/04/28 01:26:59;;;;;;;4.00;2.30;;;;;;;5.14;71.62;99375.13;5044756;28;20102;-72
2021/04/28 01:29:25;;;;;;;4.97;2.10;;;;;;;5.03;71.43;99377.78;5041304;28;20147;-71
2021/04/28 01:31:52;;;;;;;4.25;2.10;;;;;;;4.85;71.08;99365.59;5043394;28;20765;-72
2021/04/28 01:34:19;;;;;;;3.58;1.92;;;;;;;5.02;71.73;99388.31;5042403;28;20076;-70
2021/04/28 01:36:46;;;;;;;3.42;2.25;;;;;;;4.85;71.54;99393.59;5043430;28;20132;-70
2021/04/28 01:39:16;;;;;;;7.15;2.28;;;;;;;4.83;70.86;99384.88;5046217;28;20117;-70
2021/04/28 01:41:46;;;;;;;4.75;2.10;;;;;;;4.81;72.04;99392.75;5049061;28;20091;-69
2021/04/28 01:44:22;;;;;;;6.43;2.35;;;;;;;4.91;71.90;99407.59;5031351;28;20043;-68
2021/04/28 01:46:53;;;;;;;4.88;2.25;;;;;;;4.96;71.47;99404.97;5047860;28;20045;-70
2021/04/28 01:49:21;;;;;;;4.32;2.50;;;;;;;4.87;72.03;99407.63;5047745;28;20082;-71
2021/04/28 01:51:47;;;;;;;7.25;2.65;;;;;;;4.90;71.84;99413.72;5048760;28;20057;-72
2021/04/28 01:54:17;;;;;;;4.13;2.33;;;;;;;4.87;71.46;99413.72;5063520;28;20041;-71
2021/04/28 01:56:47;;;;;;;5.38;2.40;;;;;;;4.89;71.68;99411.09;5048115;28;20072;-70
2021/04/28 01:59:43;;;;;;;5.72;2.10;;;;;;;4.74;71.66;99417.28;5031198;28;20051;-71
2021/04/28 02:02:39;;;;;;;5.68;2.63;;;;;;;4.58;72.37;99399.81;4971524;28;20065;-70
2021/04/28 02:05:07;;;;;;;3.13;2.33;;;;;;;4.76;71.83;99425.16;4938956;28;20113;-70
2021/04/28 02:07:35;;;;;;;3.17;2.10;;;;;;;4.71;72.52;99429.56;4955264;28;20461;-69
2021/04/28 02:10:03;;;;;;;5.03;2.03;;;;;;;4.85;72.13;99431.25;4970092;28;20046;-71
2021/04/28 02:12:29;;;;;;;3.03;1.92;;;;;;;4.78;71.59;99418.13;4971361;28;20538;-70
2021/04/28 02:15:06;;;;;;;3.78;2.38;;;;;;;4.84;71.89;99428.66;4971636;28;20068;-70
2021/04/28 02:17:39;;;;;;;4.10;2.17;;;;;;;4.67;71.51;99427.81;4983554;28;20544;-70
2021/04/28 02:20:08;;;;;;;2.63;1.83;;;;;;;4.75;71.21;99436.56;4987143;28;20054;-68
2021/04/28 02:22:42;;;;;;;4.57;2.05;;;;;;;4.67;71.65;99441.81;4986486;28;20050;-69
2021/04/28 02:25:15;;;;;;;7.10;2.00;;;;;;;4.61;71.91;99449.72;4985715;28;20130;-70
2021/04/28 02:27:53;;;;;;;3.55;2.00;;;;;;;4.68;71.83;99447.94;4986630;28;20042;-67
2021/04/28 02:30:25;;;;;;;3.85;2.00;;;;;;;4.39;72.47;99450.59;4985972;28;20058;-70
2021/04/28 02:32:52;;;;;;;3.13;1.88;;;;;;;4.48;72.17;99455.81;4984921;28;20061;-69
2021/04/28 02:35:23;;;;;;;4.53;1.77;;;;;;;4.41;72.94;99458.47;4986618;28;20505;-69
2021/04/28 02:38:15;;;;;;;3.13;2.03;;;;;;;4.27;73.50;99458.47;4995573;28;20209;-69
2021/04/28 02:40:43;;;;;;;3.03;2.20;;;;;;;4.13;73.23;99462.84;5047209;28;20251;-70
2021/04/28 02:43:13;;;;;;;3.58;2.30;;;;;;;4.18;73.25;99470.72;5029455;28;20147;-71
2021/04/28 02:45:44;;;;;;;5.88;3.15;;;;;;;4.07;73.66;99473.31;5030573;28;20068;-70
2021/04/28 02:48:11;;;;;;;5.93;3.13;;;;;;;4.12;73.81;99468.09;5045045;28;20532;-70
2021/04/28 02:50:45;;;;;;;6.78;3.38;;;;;;;4.12;74.05;99475.97;5046095;28;20045;-70
2021/04/28 02:53:23;;;;;;;5.07;3.00;;;;;;;4.03;74.34;99483.81;5046401;28;20124;-70
2021/04/28 02:55:56;;;;;;;6.45;3.20;;;;;;;4.10;74.02;99470.72;5046004;28;20056;-70
2021/04/28 02:58:22;;;;;;;4.85;2.88;;;;;;;3.93;75.04;99495.16;5044984;28;20088;-70
2021/04/28 03:01:02;;;;;;;4.63;3.25;;;;;;;3.79;75.08;99473.28;5063798;28;20110;-70
2021/04/28 03:03:29;;;;;;;5.43;2.95;;;;;;;3.72;75.04;99480.25;5045730;28;20131;-70
2021/04/28 03:06:02;;;;;;;3.40;2.70;;;;;;;3.81;74.73;99468.94;5046864;28;20536;-71
2021/04/28 03:08:38;;;;;;;5.35;2.67;;;;;;;3.88;74.73;99515.28;5045860;28;20147;-70
2021/04/28 03:11:04;;;;;;;5.90;3.35;;;;;;;3.88;74.86;99508.25;5042987;28;20148;-71
2021/04/28 03:13:31;;;;;;;5.35;3.50;;;;;;;3.91;74.02;99496.91;5044769;28;20045;-71
2021/04/28 03:15:57;;;;;;;9.02;3.40;;;;;;;4.03;74.31;99503.06;5027492;28;20049;-71
2021/04/28 03:18:24;;;;;;;5.63;3.00;;;;;;;3.88;74.27;99479.41;5042241;28;20083;-70
2021/04/28 03:20:52;;;;;;;4.60;2.92;;;;;;;3.99;74.41;99500.41;5043010;28;20048;-69
2021/04/28 03:23:20;;;;;;;4.70;3.03;;;;;;;3.85;74.81;99512.63;5012868;28;20048;-70
2021/04/28 03:25:46;;;;;;;5.80;3.40;;;;;;;4.00;74.30;99504.81;5046223;28;20052;-69
2021/04/28 03:28:13;;;;;;;5.40;4.15;;;;;;;4.06;73.86;99512.66;5045605;28;20064;-70
2021/04/28 03:30:40;;;;;;;5.47;3.70;;;;;;;4.16;74.34;99514.44;5041556;28;20072;-73
2021/04/28 03:33:06;;;;;;;6.63;3.55;;;;;;;4.10;74.58;99525.81;5011179;28;20052;-72
2021/04/28 03:36:04;;;;;;;4.65;3.53;;;;;;;4.07;74.49;99509.16;4985111;28;20094;-70
2021/04/28 03:38:51;;;;;;;11.38;3.95;;;;;;;4.13;73.79;99514.44;4967421;28;20058;-72
2021/04/28 03:41:19;;;;;;;6.72;4.55;;;;;;;4.26;72.89;99518.81;4985223;28;20061;-69
2021/04/28 03:43:46;;;;;;;6.57;3.67;;;;;;;4.28;72.84;99519.72;4969092;28;20072;-70
2021/04/28 03:46:13;;;;;;;6.28;3.38;;;;;;;4.13;73.08;99532.81;4984777;28;20046;-70
2021/04/28 03:48:46;;;;;;;4.18;3.22;;;;;;;4.20;72.61;99531.94;4984937;28;20057;-69
2021/04/28 03:51:12;;;;;;;4.78;3.28;;;;;;;4.13;72.59;99532.81;4985103;28;20042;-68
2021/04/28 03:53:58;;;;;;;5.65;3.63;;;;;;;4.11;72.65;99527.56;4983653;28;20065;-70
2021/04/28 03:56:25;;;;;;;5.13;3.65;;;;;;;4.18;72.58;99534.56;4985424;28;20050;-71
2021/04/28 03:58:52;;;;;;;6.15;4.03;;;;;;;4.19;72.45;99535.41;4968222;28;20047;-69
2021/04/28 04:01:20;;;;;;;6.10;3.63;;;;;;;4.16;72.42;99536.28;4978753;28;20101;-69
2021/04/28 04:03:46;;;;;;;8.57;4.45;;;;;;;4.18;72.50;99541.53;4966997;28;20530;-70
2021/04/28 04:06:31;;;;;;;5.10;3.28;;;;;;;4.24;71.89;99537.19;4984688;28;20060;-68
2021/04/28 04:09:14;;;;;;;7.07;4.22;;;;;;;4.19;72.60;99536.31;4982235;28;20046;-70
2021/04/28 04:11:43;;;;;;;7.15;4.28;;;;;;;4.22;72.50;99528.44;5023782;28;20413;-72
2021/04/28 04:14:13;;;;;;;7.75;4.90;;;;;;;4.39;72.30;99541.56;5023433;28;20068;-71
2021/04/28 04:16:39;;;;;;;7.57;4.60;;;;;;;4.25;72.20;99524.94;5044311;28;20636;-69
2021/04/28 04:19:05;;;;;;;7.40;4.53;;;;;;;4.41;72.46;99555.59;5027548;28;20049;-70
2021/04/28 04:21:38;;;;;;;5.70;4.20;;;;;;;4.48;71.21;99545.06;5027443;28;20056;-69
2021/04/28 04:24:22;;;;;;;6.07;3.83;;;;;;;4.45;71.57;99552.97;5031106;28;20045;-70
2021/04/28 04:27:09;;;;;;;7.53;4.20;;;;;;;4.50;71.42;99553.84;5044161;28;20076;-70
2021/04/28 04:29:41;;;;;;;5.25;3.70;;;;;;;4.60;71.78;99562.59;5046043;28;20124;-70
2021/04/28 04:32:25;;;;;;;5.55;3.88;;;;;;;4.62;71.72;99553.84;5037484;28;20091;-72
2021/04/28 04:35:10;;;;;;;7.55;3.90;;;;;;;4.72;71.03;99563.44;5044445;28;20107;-71
2021/04/28 04:38:17;;;;;;;6.22;3.67;;;;;;;4.82;71.31;99569.59;5004009;28;20050;-69
2021/04/28 04:41:16;;;;;;;7.00;3.95;;;;;;;4.71;70.82;99529.34;4926133;29;20055;-70
2021/04/28 04:44:17;;;;;;;11.70;4.85;;;;;;;4.95;70.85;99573.97;4869412;29;20061;-69
2021/04/28 04:46:56;;;;;;;5.03;3.88;;;;;;;5.18;70.04;99576.56;4868794;29;20155;-70
2021/04/28 04:49:22;;;;;;;5.63;4.03;;;;;;;5.12;70.55;99573.94;4852030;29;20147;-72
2021/04/28 04:51:47;;;;;;;5.32;3.97;;;;;;;5.18;70.06;99573.94;4870235;29;20869;-70
2021/04/28 04:54:13;;;;;;;7.55;3.60;;;;;;;5.03;69.71;99548.56;4869905;29;20056;-69
2021/04/28 04:56:39;;;;;;;5.80;3.38;;;;;;;5.29;69.46;99580.06;4854097;29;20144;-70
2021/04/28 04:59:05;;;;;;;3.75;2.83;;;;;;;5.26;67.54;99580.91;4867781;29;20140;-73
2021/04/28 05:01:31;;;;;;;4.82;2.35;;;;;;;5.21;67.09;99577.44;4868889;29;20140;-71
2021/04/28 05:03:57;;;;;;;3.05;2.53;;;;;;;5.28;67.17;99565.13;4868741;29;20414;-71
2021/04/28 05:06:23;;;;;;;4.20;2.67;;;;;;;5.32;66.16;99580.91;4853419;29;20049;-71
2021/04/28 05:08:49;;;;;;;4.00;2.88;;;;;;;5.31;66.32;99575.66;4860689;29;20118;-72
2021/04/28 05:11:15;;;;;;;3.80;2.45;;;;;;;5.52;66.43;99591.38;4888010;29;20048;-70
2021/04/28 05:13:41;;;;;;;3.13;2.28;;;;;;;5.48;65.44;99589.63;4887761;29;20045;-71
2021/04/28 05:16:07;;;;;;;4.10;2.70;;;;;;;5.50;65.48;99578.22;4905115;28;20553;-70
2021/04/28 05:18:33;;;;;;;4.82;2.30;;;;;;;5.65;64.96;99601.00;5014110;28;20037;-70
2021/04/28 05:20:59;;;;;;;4.60;2.88;;;;;;;5.62;63.99;99607.09;5045671;28;20047;-71
2021/04/28 05:23:25;;;;;;;3.55;2.58;;;;;;;5.64;64.60;99600.09;5045099;28;20351;-71
2021/04/28 05:26:22;;;;;;;2.92;2.25;;;;;;;5.82;64.73;99607.09;5043820;28;20049;-69
2021/04/28 05:28:48;;;;;;;7.05;2.50;;;;;;;5.92;64.49;99614.94;5043791;28;20140;-71
2021/04/28 05:31:14;;;;;;;3.30;2.33;;;;;;;6.00;64.39;99607.88;5008757;28;20049;-71
2021/04/28 05:33:40;;;;;;;3.13;2.20;;;;;;;6.05;63.02;99614.00;5039479;28;20044;-70
2021/04/28 05:36:07;;;;;;;3.97;2.85;;;;;;;6.01;63.98;99620.16;5026884;28;20469;-73
2021/04/28 05:38:33;;;;;;;4.15;3.03;;;;;;;6.00;63.93;99617.53;5026032;28;20131;-73
2021/04/28 05:40:59;;;;;;;4.00;2.65;;;;;;;6.03;63.58;99607.00;5043714;28;20141;-70
2021/04/28 05:43:25;;;;;;;3.35;2.55;;;;;;;6.28;62.22;99627.94;5042995;28;20427;-72
2021/04/28 05:45:52;;;;;;;6.15;3.30;;;;;;;6.15;64.64;99638.53;5043096;28;20160;-71
2021/04/28 05:48:18;;;;;;;5.90;3.53;;;;;;;6.40;64.49;99635.75;5041878;28;20057;-71
2021/04/28 05:50:45;;;;;;;6.70;3.70;;;;;;;6.47;64.59;99620.78;5043662;28;20531;-70
2021/04/28 05:53:11;;;;;;;5.30;3.20;;;;;;;6.39;62.49;99633.13;5043164;28;20786;-72
2021/04/28 05:55:44;;;;;;;3.33;2.65;;;;;;;6.37;62.66;99627.88;5042846;28;20524;-72
2021/04/28 05:58:16;;;;;;;4.47;3.40;;;;;;;6.43;60.75;99637.50;5043541;28;20122;-71
2021/04/28 06:00:42;;;;;;;5.20;3.25;;;;;;;6.55;61.57;99633.03;5042892;28;20047;-70
2021/04/28 06:03:08;;;;;;;4.53;3.00;;;;;;;6.40;62.66;99629.59;5006626;28;20067;-70
2021/04/28 06:05:34;;;;;;;8.32;3.13;;;;;;;6.57;62.92;99640.94;5027225;28;20571;-69
2021/04/28 06:08:00;;;;;;;5.03;3.17;;;;;;;6.64;62.59;99650.56;5045030;28;20145;-69
2021/04/28 06:10:26;;;;;;;4.93;3.15;;;;;;;6.77;62.21;99645.16;5026953;28;20060;-71
2021/04/28 06:12:52;;;;;;;3.78;2.92;;;;;;;6.60;62.48;99644.41;5041719;28;20052;-71
2021/04/28 06:15:18;;;;;;;15.95;2.80;;;;;;;6.68;61.12;99650.50;5042727;28;20041;-71
2021/04/28 06:17:45;;;;;;;4.53;3.00;;;;;;;6.84;61.97;99641.63;5025703;28;20052;-72
2021/04/28 06:20:13;;;;;;;4.68;2.40;;;;;;;6.75;60.46;99646.97;5043564;28;20540;-74
2021/04/28 06:22:40;;;;;;;6.07;2.85;;;;;;;6.87;61.02;99654.78;5043029;28;20100;-71
2021/04/28 06:25:07;;;;;;;2.42;2.03;;;;;;;6.86;60.44;99646.88;5045970;28;20408;-70
2021/04/28 06:27:33;;;;;;;5.22;2.55;;;;;;;6.96;60.08;99656.47;5047863;28;20049;-66
2021/04/28 06:29:59;;;;;;;9.38;2.75;;;;;;;7.18;59.03;99658.94;5046568;28;20465;-75
2021/04/28 06:32:25;;;;;;;4.28;2.70;;;;;;;7.07;57.36;99662.53;5046782;28;20085;-66
2021/04/28 06:34:51;;;;;;;7.57;2.35;;;;;;;7.13;58.46;99654.56;5048139;28;20060;-70
2021/04/28 06:37:17;;;;;;;6.93;1.95;;;;;;;7.25;58.23;99655.38;5026021;28;20497;-77
2021/04/28 06:39:43;;;;;;;10.52;2.58;;;;;;;7.27;57.61;99666.75;5043064;28;20045;-67
2021/04/28 06:42:09;;;;;;;2.90;2.05;;;;;;;7.26;57.39;99665.00;5028529;28;20632;-68
2021/04/28 06:44:35;;;;;;;4.55;2.03;;;;;;;7.23;56.56;99645.69;5036565;28;20544;-69
2021/04/28 06:47:00;;;;;;;2.72;2.10;;;;;;;7.36;57.52;99661.38;5019138;28;20061;-67
2021/04/28 06:49:26;;;;;;;4.45;2.20;;;;;;;7.40;55.49;99662.25;5046221;28;20044;-69
2021/04/28 06:51:52;;;;;;;4.00;2.63;;;;;;;7.66;56.62;99669.03;5048148;28;20092;-70
2021/04/28 06:54:19;;;;;;;3.75;2.40;;;;;;;7.83;57.36;99669.72;5043237;28;20037;-69
2021/04/28 06:56:46;;;;;;;4.60;2.38;;;;;;;8.21;54.79;99675.47;5044930;28;20134;-69
2021/04/28 06:59:17;;;;;;;7.03;2.80;;;;;;;8.51;54.08;99659.22;5046407;28;20557;-69
2021/04/28 07:01:45;;;;;;;8.85;3.72;;;;;;;8.21;56.22;99680.75;5046512;28;20048;-69
2021/04/28 07:04:12;;;;;;;5.60;3.10;;;;;;;8.43;56.72;99679.59;5027231;28;20045;-68
2021/04/28 07:06:40;;;;;;;9.27;2.10;;;;;;;8.55;56.31;99692.63;4997709;28;20190;-70
2021/04/28 07:09:06;;;;;;;7.63;3.13;;;;;;;8.01;56.14;99674.81;5013249;28;20048;-70
2021/04/28 07:11:33;;;;;;;7.43;2.40;;;;;;;9.09;55.16;99675.09;5045640;28;20052;-72
2021/04/28 07:14:00;;;;;;;5.47;2.10;;;;;;;9.16;54.15;99687.34;5047080;28;20087;-68
2021/04/28 07:16:26;;;;;;;8.23;2.17;;;;;;;8.82;55.06;99699.31;5026982;28;20040;-69
2021/04/28 07:18:52;;;;;;;2.65;1.80;;;;;;;9.58;53.84;99689.31;5015801;28;20037;-69
2021/04/28 07:21:18;;;;;;;3.72;2.72;;;;;;;10.04;52.77;99671.66;5044197;28;20194;-70
2021/04/28 07:23:46;;;;;;;6.50;2.60;;;;;;;10.55;50.74;99672.38;5045825;28;20048;-69
2021/04/28 07:26:13;;;;;;;4.28;1.77;;;;;;;9.95;51.06;99682.44;5012581;28;20037;-70
2021/04/28 07:28:39;;;;;;;5.60;1.90;;;;;;;9.20;52.41;99699.63;5044810;28;20045;-72
2021/04/28 07:31:06;;;;;;;8.20;2.00;;;;;;;9.11;53.27;99695.34;5046052;28;20044;-69
2021/04/28 07:33:33;;;;;;;7.20;1.98;;;;;;;9.47;52.64;99697.41;5038504;28;20037;-68
2021/04/28 07:35:59;;;;;;;3.67;1.67;;;;;;;9.11;52.43;99695.34;5029396;28;20079;-70
2021/04/28 07:38:25;;;;;;;2.55;1.90;;;;;;;10.06;51.23;99701.69;5044782;28;20084;-71
2021/04/28 07:40:52;;;;;;;6.97;2.05;;;;;;;10.07;51.13;99691.94;5030062;28;20100;-70
2021/04/28 07:43:18;;;;;;;5.32;2.53;;;;;;;11.06;49.10;99711.91;5046854;28;20222;-68
2021/04/28 07:45:44;;;;;;;2.63;1.73;;;;;;;10.77;48.78;99709.03;5045155;28;20063;-71
2021/04/28 07:48:26;;;;;;;5.45;2.03;;;;;;;10.19;48.31;99716.44;5028144;28;20040;-68
2021/04/28 07:51:02;;;;;;;4.97;1.75;;;;;;;10.08;50.27;99718.41;5030677;28;20045;-69
2021/04/28 07:53:32;;;;;;;3.45;2.22;;;;;;;10.06;51.61;99716.69;5028224;28;20036;-68
2021/04/28 07:55:59;;;;;;;4.20;1.88;;;;;;;9.72;50.26;99719.03;5048305;28;20055;-69
2021/04/28 07:58:32;;;;;;;2.72;1.85;;;;;;;9.24;49.80;99709.25;5048581;28;20048;-75
2021/04/28 08:00:58;;;;;;;6.85;2.30;;;;;;;8.97;51.96;99714.97;5044988;28;20128;-69
2021/04/28 08:03:24;;;;;;;6.03;2.25;;;;;;;10.49;50.30;99728.19;5045114;28;20496;-66
2021/04/28 08:05:50;;;;;;;3.55;2.38;;;;;;;10.27;50.86;99724.22;5029262;28;20508;-69
2021/04/28 08:08:16;;;;;;;3.25;2.63;;;;;;;9.38;52.64;99726.66;5043801;28;20048;-68
2021/04/28 08:10:42;;;;;;;3.83;2.17;;;;;;;9.68;52.16;99732.38;5029049;28;20044;-67
2021/04/28 08:13:10;;;;;;;4.30;2.83;;;;;;;11.65;46.72;99723.78;5045193;28;20045;-68
2021/04/28 08:15:38;;;;;;;15.45;2.72;;;;;;;13.16;43.53;99737.22;5046321;28;20040;-70
2021/04/28 08:18:06;;;;;;;7.57;2.67;;;;;;;15.04;41.44;99744.88;5043149;28;20049;-70
2021/04/28 08:20:38;;;;;;;2.85;2.38;;;;;;;15.10;40.58;99741.06;5045069;28;20547;-67
2021/04/28 08:23:05;;;;;;;4.65;1.70;;;;;;;13.10;42.44;99746.28;5045512;28;20167;-68
2021/04/28 08:25:31;;;;;;;3.70;1.70;;;;;;;11.91;44.99;99722.19;5043176;28;20100;-67
2021/04/28 08:27:59;;;;;;;3.38;2.22;;;;;;;10.74;48.60;99727.66;5043195;28;20099;-68
2021/04/28 08:30:25;;;;;;;3.75;2.47;;;;;;;13.93;42.48;99752.44;5044237;28;20068;-68
2021/04/28 08:32:51;;;;;;;2.45;1.88;;;;;;;12.23;45.11;99724.00;5042811;28;20075;-67
2021/04/28 08:35:17;;;;;;;5.35;2.90;;;;;;;13.45;44.73;99761.16;5028112;28;20044;-67
2021/04/28 08:37:47;;;;;;;6.88;2.85;;;;;;;14.37;42.88;99748.28;5027691;28;20048;-68
2021/04/28 08:40:17;;;;;;;3.95;2.45;;;;;;;13.72;43.80;99745.16;5061173;28;20094;-70
2021/04/28 08:43:03;;;;;;;3.60;1.98;;;;;;;12.70;45.54;99747.50;5048382;28;20041;-68
2021/04/28 08:45:38;;;;;;;;;;;;;;;14.27;41.00;99744.19;5044374;28;20521;-70
2021/04/28 08:48:04;;;;;;;6.55;2.90;;;;;;;15.72;38.36;99767.09;5043058;28;19921;-69
2021/04/28 08:50:48;;;;;;;4.80;2.50;;;;;;;16.01;38.63;99764.06;5045135;28;20048;-68
2021/04/28 08:53:18;;;;;;;7.40;1.92;;;;;;;14.99;40.21;99760.16;5026427;28;20513;-69
2021/04/28 08:55:49;;;;;;;2.58;1.88;;;;;;;16.45;37.78;99738.09;5044809;28;20049;-68
2021/04/28 08:58:16;;;;;;;3.20;2.00;;;;;;;15.98;38.37;99747.28;5027781;28;20059;-68
2021/04/28 09:00:46;;;;;;;2.03;1.50;;;;;;;16.26;37.05;99764.75;5010813;28;20052;-75
2021/04/28 09:03:17;;;;;;;6.15;2.60;;;;;;;17.98;35.44;99739.69;5029236;28;20064;-79
2021/04/28 09:06:03;;;;;;;4.20;2.20;;;;;;;18.34;34.67;99770.94;5025644;28;20363;-80
2021/04/28 09:09:32;;;;;;;4.35;1.27;;;;;;;15.54;38.62;99767.81;5027968;28;20045;-81
2021/04/28 09:12:11;;;;;;;4.32;1.38;;;;;;;13.85;41.98;99748.31;4994416;28;20153;-71
2021/04/28 09:14:45;;;;;;;3.42;1.35;;;;;;;13.24;43.25;99769.81;4969610;28;20144;-68
2021/04/28 09:17:11;;;;;;;1.58;1.40;;;;;;;13.31;42.32;99774.94;5004044;28;20042;-69
2021/04/28 09:20:20;;;;;;;5.80;1.48;;;;;;;12.72;43.61;99774.91;5007108;28;20049;-70
2021/04/28 09:23:18;;;;;;;1.75;1.50;;;;;;;11.79;45.41;99782.75;5021239;28;20049;-67
2021/04/28 09:26:14;;;;;;;4.75;1.30;;;;;;;11.35;44.39;99772.28;5023406;28;20049;-69
2021/04/28 09:28:58;;;;;;;3.45;2.28;;;;;;;15.91;38.34;99785.91;5008326;28;20076;-69
2021/04/28 09:31:24;;;;;;;9.55;2.25;;;;;;;18.20;34.92;99800.31;5022661;28;20561;-68
2021/04/28 09:33:55;;;;;;;2.72;1.65;;;;;;;20.48;31.74;99807.34;5002575;28;20140;-69
2021/04/28 09:36:41;;;;;;;2.83;2.03;;;;;;;19.04;32.21;99795.88;5006091;28;20060;-68
2021/04/28 09:39:10;;;;;;;9.68;1.92;;;;;;;20.28;31.31;99814.84;4971720;28;20049;-69
2021/04/28 09:41:41;;;;;;;6.07;2.30;;;;;;;19.12;32.76;99799.91;5006405;28;20049;-70
2021/04/28 09:44:18;;;;;;;2.70;1.40;;;;;;;15.46;37.23;99737.84;5006209;28;20135;-69
2021/04/28 09:47:14;;;;;;;2.53;1.92;;;;;;;15.75;36.89;99800.84;4992205;28;20049;-69
2021/04/28 09:49:46;;;;;;;3.85;1.83;;;;;;;18.35;34.08;99805.81;5022829;28;20041;-71
2021/04/28 09:52:13;;;;;;;4.65;1.30;;;;;;;15.62;37.16;99797.78;5024693;28;20049;-70
2021/04/28 09:54:42;;;;;;;1.73;1.10;;;;;;;13.94;39.78;99783.50;5023713;28;20454;-69
2021/04/28 09:57:09;;;;;;;4.53;1.25;;;;;;;13.41;42.33;99776.38;5024095;28;20057;-81
2021/04/28 09:59:51;;;;;;;3.20;1.40;;;;;;;13.10;42.80;99806.66;5027107;28;20158;-70
2021/04/28 10:02:26;;;;;;;4.30;2.65;;;;;;;13.08;43.10;99803.16;5057587;28;20064;-73
2021/04/28 10:04:53;;;;;;;3.28;1.60;;;;;;;12.12;43.56;99784.56;5028650;28;20436;-73
2021/04/28 10:07:28;;;;;;;8.02;1.60;;;;;;;11.97;43.61;99815.06;5031679;28;20060;-75
2021/04/28 10:09:54;;;;;;;1.88;1.30;;;;;;;11.92;44.67;99806.34;5047935;28;20047;-74
2021/04/28 10:12:22;;;;;;;5.18;2.45;;;;;;;11.52;45.89;99792.19;5045767;28;20067;-77
2021/04/28 10:14:48;;;;;;;5.10;1.85;;;;;;;11.38;46.08;99801.41;5047490;28;20048;-72
2021/04/28 10:17:16;;;;;;;3.72;1.40;;;;;;;11.39;46.35;99827.06;5047197;28;20110;-72
2021/04/28 10:19:44;;;;;;;4.65;1.70;;;;;;;11.66;45.20;99811.41;5063475;28;20056;-71
2021/04/28 10:22:18;;;;;;;2.80;1.60;;;;;;;13.10;43.68;99819.97;5063968;28;20115;-73
2021/04/28 10:24:48;;;;;;;1.88;1.63;;;;;;;12.59;45.31;99821.41;5030195;28;20060;-71
2021/04/28 10:27:17;;;;;;;2.17;1.38;;;;;;;12.35;45.23;99820.25;5045821;28;20048;-71
2021/04/28 10:29:52;;;;;;;4.78;2.08;;;;;;;11.95;46.83;99827.50;5048651;28;20044;-72
2021/04/28 10:32:20;;;;;;;2.85;1.50;;;;;;;11.72;46.56;99824.53;5047482;28;20166;-72
2021/04/28 10:34:50;;;;;;;4.78;1.40;;;;;;;11.67;46.62;99814.94;5046633;28;20048;-72
2021/04/28 10:37:19;;;;;;;4.05;1.50;;;;;;;11.56;46.24;99830.19;5046530;28;20452;-69
2021/04/28 10:39:50;;;;;;;6.38;1.55;;;;;;;11.62;47.44;99830.97;5048150;28;20036;-70
2021/04/28 10:42:36;;;;;;;2.40;1.38;;;;;;;11.61;48.14;99828.34;5044082;28;20098;-70
2021/04/28 10:45:05;;;;;;;3.63;1.70;;;;;;;11.59;47.83;99833.66;5047080;28;20083;-69
2021/04/28 10:47:40;;;;;;;2.90;1.20;;;;;;;11.05;48.16;99844.59;5045622;28;20512;-72
2021/04/28 10:50:06;;;;;;;8.02;1.55;;;;;;;10.88;49.34;99838.78;5063899;28;20049;-72
2021/04/28 10:52:34;;;;;;;6.13;1.45;;;;;;;10.94;48.71;99843.94;5046883;28;20056;-72
2021/04/28 10:55:00;;;;;;;1.60;1.20;;;;;;;11.07;47.33;99835.72;5046786;28;20135;-72
2021/04/28 10:57:41;;;;;;;1.92;1.20;;;;;;;11.68;46.28;99829.94;5045476;28;20821;-72
2021/04/28 11:00:20;;;;;;;2.47;1.60;;;;;;;13.14;43.32;99856.22;5030392;28;20416;-72
2021/04/28 11:02:47;;;;;;;2.05;1.20;;;;;;;13.35;43.14;99842.28;5031864;28;20490;-74
2021/04/28 11:05:28;;;;;;;1.10;1.00;;;;;;;12.69;44.19;99841.50;5047354;28;20049;-71
2021/04/28 11:08:10;;;;;;;2.83;1.30;;;;;;;11.39;46.23;99793.41;5045894;28;20127;-73
2021/04/28 11:10:46;;;;;;;5.28;1.33;;;;;;;11.93;45.97;99839.97;5048453;28;20134;-73
2021/04/28 11:13:18;;;;;;;3.15;1.30;;;;;;;12.15;45.70;99813.72;5024892;28;20037;-71
2021/04/28 11:15:53;;;;;;;1.48;1.02;;;;;;;11.29;47.79;99837.00;5026510;28;20053;-71
2021/04/28 11:18:34;;;;;;;3.10;1.30;;;;;;;11.43;47.89;99839.38;5043267;28;20124;-69
2021/04/28 11:21:27;;;;;;;4.93;1.30;;;;;;;11.52;47.93;99847.97;5027134;28;20053;-72
2021/04/28 11:24:07;;;;;;;5.15;1.40;;;;;;;11.40;47.67;99850.03;5024322;28;20080;-70
2021/04/28 11:27:02;;;;;;;4.53;1.73;;;;;;;11.26;47.94;99834.41;5048768;28;20515;-71
2021/04/28 11:29:55;;;;;;;3.08;1.13;;;;;;;11.25;46.92;99839.75;5024991;28;20312;-71
2021/04/28 11:32:21;;;;;;;2.20;1.33;;;;;;;10.89;47.55;99838.75;5058710;28;20119;-70
2021/04/28 11:34:52;;;;;;;1.10;1.00;;;;;;;10.56;48.35;99842.03;5035326;28;20079;-70
2021/04/28 11:37:18;;;;;;;6.47;1.65;;;;;;;10.86;48.60;99835.28;5047257;28;20071;-70
2021/04/28 11:39:47;;;;;;;2.08;1.00;;;;;;;11.05;48.39;99847.25;5045524;28;20040;-71
2021/04/28 11:42:15;;;;;;;4.10;1.50;;;;;;;11.86;46.44;99840.13;5025776;28;20126;-73
2021/04/28 11:44:57;;;;;;;2.47;1.15;;;;;;;10.88;48.53;99829.03;5062494;28;20562;-69
2021/04/28 11:47:27;;;;;;;1.08;0.98;;;;;;;10.92;48.49;99849.28;5027745;28;20045;-73
2021/04/28 11:49:57;;;;;;;4.47;1.30;;;;;;;10.93;49.07;99836.91;5025678;28;20048;-69
2021/04/28 11:52:25;;;;;;;6.68;1.17;;;;;;;10.87;49.74;99842.31;5045320;28;20397;-72
2021/04/28 11:55:01;;;;;;;8.70;1.42;;;;;;;11.27;48.21;99838.81;5044847;28;20052;-71
2021/04/28 11:57:32;;;;;;;2.67;1.33;;;;;;;11.34;47.63;99832.47;5044406;28;20055;-70